createdAt,value
2019-04-28T08:54:14.409Z,9.98
2019-04-28T08:56:40.296Z,9.73
2019-04-28T08:59:06.237Z,9.68
2019-04-28T09:01:32.305Z,9.73
2019-04-28T09:03:58.198Z,9.71
2019-04-28T09:06:24.118Z,9.70
2019-04-28T09:08:50.156Z,9.70
2019-04-28T09:11:16.154Z,9.76
2019-04-28T09:13:43.847Z,9.81
2019-04-28T09:16:09.905Z,9.86
2019-04-28T09:18:36.005Z,9.92
2019-04-28T09:21:01.999Z,9.95
2019-04-28T09:23:27.921Z,9.97
2019-04-28T09:25:53.942Z,10.00
2019-04-28T09:28:20.049Z,10.03
2019-04-28T09:30:46.095Z,10.16
2019-04-28T09:33:11.993Z,10.26
2019-04-28T09:35:37.972Z,10.58
2019-04-28T09:38:03.924Z,11.01
2019-04-28T09:40:29.833Z,11.47
2019-04-28T09:43:06.782Z,11.94
2019-04-28T09:45:34.705Z,12.35
2019-04-28T09:48:00.628Z,12.72
2019-04-28T09:50:26.932Z,12.85
2019-04-28T09:52:52.982Z,12.98
2019-04-28T09:55:19.148Z,13.10
2019-04-28T09:57:45.174Z,13.19
2019-04-28T10:00:11.473Z,13.28
2019-04-28T10:02:37.398Z,13.37
2019-04-28T10:05:07.482Z,13.49
2019-04-28T10:07:33.431Z,13.64
2019-04-28T10:09:59.452Z,13.74
2019-04-28T10:12:27.320Z,13.82
2019-04-28T10:14:53.259Z,13.90
2019-04-28T10:17:19.290Z,13.99
2019-04-28T10:19:45.203Z,14.06
2019-04-28T10:22:11.200Z,14.14
2019-04-28T10:24:37.241Z,14.15
2019-04-28T10:27:04.858Z,14.20
2019-04-28T10:29:32.950Z,14.32
2019-04-28T10:31:58.780Z,14.48
2019-04-28T10:34:24.777Z,14.59
2019-04-28T10:36:50.790Z,14.63
2019-04-28T10:39:30.680Z,14.65
2019-04-28T10:41:56.813Z,14.59
2019-04-28T10:44:23.717Z,14.61
2019-04-28T10:46:49.841Z,14.69
2019-04-28T10:49:15.941Z,14.79
2019-04-28T10:51:41.947Z,14.87
2019-04-28T10:54:07.935Z,14.91
2019-04-28T10:56:34.006Z,15.00
2019-04-28T10:59:00.558Z,15.08
2019-04-28T11:01:26.443Z,15.13
2019-04-28T11:03:54.246Z,15.20
2019-04-28T11:06:20.472Z,15.25
2019-04-28T11:08:48.475Z,15.31
2019-04-28T11:11:16.400Z,15.41
2019-04-28T11:13:42.474Z,15.51
2019-04-28T11:16:09.789Z,15.55
2019-04-28T11:18:35.698Z,15.59
2019-04-28T11:21:01.621Z,15.57
2019-04-28T11:23:27.665Z,15.59
2019-04-28T11:25:53.711Z,15.66
2019-04-28T11:28:19.800Z,15.71
2019-04-28T11:30:45.737Z,15.73
2019-04-28T11:33:13.796Z,15.80
2019-04-28T11:35:43.856Z,15.88
2019-04-28T11:38:09.861Z,15.88
2019-04-28T11:40:35.803Z,15.94
2019-04-28T11:43:01.807Z,16.00
2019-04-28T11:45:30.900Z,15.95
2019-04-28T11:47:56.837Z,15.89
2019-04-28T11:50:23.060Z,15.86
2019-04-28T11:52:48.972Z,15.87
2019-04-28T11:55:14.904Z,15.92
2019-04-28T11:57:41.181Z,15.94
2019-04-28T12:00:13.740Z,15.97
2019-04-28T12:02:39.670Z,15.98
2019-04-28T12:05:05.870Z,16.02
2019-04-28T12:07:31.875Z,16.07
2019-04-28T12:10:04.949Z,16.10
2019-04-28T12:12:29.534Z,16.14
2019-04-28T12:15:15.274Z,16.16
2019-04-28T12:17:43.225Z,16.21
2019-04-28T12:20:13.785Z,16.20
2019-04-28T12:22:39.960Z,16.22
2019-04-28T12:25:06.448Z,16.21
2019-04-28T12:27:32.359Z,16.22
2019-04-28T12:29:58.401Z,16.20
2019-04-28T12:32:24.345Z,16.21
2019-04-28T12:34:50.253Z,16.23
2019-04-28T12:37:16.291Z,16.26
2019-04-28T12:39:42.300Z,16.27
2019-04-28T12:42:08.504Z,16.27
2019-04-28T12:44:34.443Z,16.27
2019-04-28T12:47:00.459Z,16.29
2019-04-28T12:49:43.217Z,16.35
2019-04-28T12:52:09.424Z,16.39
2019-04-28T12:54:37.327Z,16.40
2019-04-28T12:57:03.642Z,16.43
2019-04-28T12:59:31.649Z,16.39
2019-04-28T13:02:05.321Z,16.38
2019-04-28T13:04:51.239Z,16.38
2019-04-28T13:07:17.248Z,16.37
2019-04-28T13:09:43.267Z,16.38
2019-04-28T13:12:09.304Z,16.38
2019-04-28T13:14:35.305Z,16.31
2019-04-28T13:17:01.439Z,16.26
2019-04-28T13:19:27.562Z,16.24
2019-04-28T13:21:53.687Z,16.17
2019-04-28T13:24:19.615Z,16.09
2019-04-28T13:26:45.651Z,16.04
2019-04-28T13:29:11.574Z,15.98
2019-04-28T13:31:37.485Z,15.98
2019-04-28T13:34:05.434Z,15.92
2019-04-28T13:36:31.359Z,15.86
2019-04-28T13:38:59.168Z,15.78
2019-04-28T13:41:25.314Z,15.70
2019-04-28T13:43:51.208Z,15.60
2019-04-28T13:46:17.182Z,15.50
2019-04-28T13:48:43.180Z,15.44
2019-04-28T13:51:09.076Z,15.35
2019-04-28T13:53:35.031Z,15.30
2019-04-28T13:56:02.382Z,15.24
2019-04-28T13:58:30.431Z,15.18
2019-04-28T14:01:04.074Z,15.16
2019-04-28T14:03:40.649Z,15.15
2019-04-28T14:06:11.181Z,15.11
2019-04-28T14:08:37.204Z,15.10
2019-04-28T14:11:03.335Z,15.08
2019-04-28T14:13:29.249Z,15.10
2019-04-28T14:15:55.155Z,15.09
2019-04-28T14:18:21.243Z,15.01
2019-04-28T14:20:47.261Z,14.97
2019-04-28T14:23:13.216Z,14.92
2019-04-28T14:25:39.109Z,14.76
2019-04-28T14:28:05.414Z,14.69
2019-04-28T14:30:31.441Z,14.67
2019-04-28T14:32:57.552Z,14.67
2019-04-28T14:35:23.488Z,14.63
2019-04-28T14:37:49.350Z,14.62
2019-04-28T14:40:15.485Z,14.60
2019-04-28T14:42:41.524Z,14.59
2019-04-28T14:45:07.826Z,14.59
2019-04-28T14:47:33.851Z,14.58
2019-04-28T14:50:02.685Z,14.54
2019-04-28T14:52:27.598Z,14.55
2019-04-28T14:54:53.604Z,14.56
2019-04-28T14:57:19.619Z,14.58
2019-04-28T14:59:45.519Z,14.57
2019-04-28T15:02:19.663Z,14.55
2019-04-28T15:05:03.950Z,14.57
2019-04-28T15:07:37.543Z,14.60
2019-04-28T15:10:19.052Z,14.57
2019-04-28T15:12:45.079Z,14.50
2019-04-28T15:15:11.760Z,14.46
2019-04-28T15:17:37.672Z,14.43
2019-04-28T15:20:04.096Z,14.41
2019-04-28T15:22:30.052Z,14.34
2019-04-28T15:24:56.012Z,14.31
2019-04-28T15:27:21.912Z,14.26
2019-04-28T15:29:50.293Z,14.23
2019-04-28T15:32:15.816Z,14.18
2019-04-28T15:34:41.705Z,14.12
2019-04-28T15:37:09.965Z,14.14
2019-04-28T15:39:35.661Z,14.12
2019-04-28T15:42:01.596Z,14.05
2019-04-28T15:44:27.622Z,14.04
2019-04-28T15:46:53.575Z,14.07
2019-04-28T15:49:19.592Z,14.09
2019-04-28T15:51:45.617Z,14.10
2019-04-28T15:54:11.520Z,14.06
2019-04-28T15:56:39.327Z,14.10
2019-04-28T15:59:05.763Z,13.97
2019-04-28T16:01:31.672Z,13.92
2019-04-28T16:03:57.765Z,13.70
2019-04-28T16:06:23.706Z,13.75
2019-04-28T16:08:49.719Z,13.63
2019-04-28T16:11:15.639Z,13.50
2019-04-28T16:13:41.601Z,13.38
2019-04-28T16:16:07.606Z,13.24
2019-04-28T16:18:33.460Z,13.11
2019-04-28T16:20:59.511Z,13.00
2019-04-28T16:23:25.514Z,12.92
2019-04-28T16:25:51.527Z,12.84
2019-04-28T16:28:17.500Z,12.78
2019-04-28T16:30:43.578Z,12.56
2019-04-28T16:33:09.590Z,12.71
2019-04-28T16:35:35.428Z,12.64
2019-04-28T16:38:01.490Z,12.59
2019-04-28T16:40:29.412Z,12.53
2019-04-28T16:42:58.621Z,12.51
2019-04-28T16:45:24.684Z,12.52
2019-04-28T16:47:50.533Z,12.46
2019-04-28T16:50:16.549Z,12.39
2019-04-28T16:52:42.489Z,12.28
2019-04-28T16:55:16.286Z,12.17
2019-04-28T16:57:44.343Z,12.09
2019-04-28T17:00:30.385Z,12.05
2019-04-28T17:02:57.700Z,11.99
2019-04-28T17:05:23.949Z,11.91
2019-04-28T17:07:53.178Z,11.90
2019-04-28T17:10:17.814Z,11.90
2019-04-28T17:12:43.799Z,11.86
2019-04-28T17:15:10.033Z,11.84
2019-04-28T17:17:35.944Z,11.80
2019-04-28T17:20:04.939Z,11.76
2019-04-28T17:22:30.923Z,11.71
2019-04-28T17:24:56.799Z,11.62
2019-04-28T17:27:22.890Z,11.55
2019-04-28T17:29:51.114Z,11.50
2019-04-28T17:32:16.488Z,11.46
2019-04-28T17:34:42.429Z,11.42
2019-04-28T17:37:08.880Z,11.37
2019-04-28T17:39:35.707Z,11.32
2019-04-28T17:42:02.425Z,11.24
2019-04-28T17:44:28.350Z,11.14
2019-04-28T17:46:54.409Z,11.05
2019-04-28T17:49:22.498Z,11.00
2019-04-28T17:51:48.614Z,10.92
2019-04-28T17:54:14.518Z,10.83
2019-04-28T17:56:40.571Z,10.76
2019-04-28T17:59:06.437Z,10.71
2019-04-28T18:01:37.106Z,10.63
2019-04-28T18:04:16.975Z,10.55
2019-04-28T18:07:03.003Z,10.48
2019-04-28T18:09:29.150Z,10.41
2019-04-28T18:11:55.164Z,10.33
2019-04-28T18:14:21.073Z,10.24
2019-04-28T18:16:51.948Z,10.15
2019-04-28T18:19:22.503Z,10.08
2019-04-28T18:21:48.497Z,10.01
2019-04-28T18:24:14.508Z,9.96
2019-04-28T18:26:40.341Z,9.89
2019-04-28T18:29:06.225Z,9.83
2019-04-28T18:31:43.026Z,9.78
2019-04-28T18:34:21.334Z,9.70
2019-04-28T18:36:51.844Z,9.63
2019-04-28T18:39:36.270Z,9.54
2019-04-28T18:42:06.976Z,9.50
2019-04-28T18:44:32.975Z,9.42
2019-04-28T18:46:58.877Z,9.37
2019-04-28T18:49:24.781Z,9.30
2019-04-28T18:51:50.814Z,9.21
2019-04-28T18:54:16.707Z,9.11
2019-04-28T18:56:42.668Z,9.01
2019-04-28T18:59:08.763Z,8.90
2019-04-28T19:01:39.561Z,8.83
2019-04-28T19:04:05.773Z,8.75
2019-04-28T19:06:31.992Z,8.67
2019-04-28T19:09:02.636Z,8.56
2019-04-28T19:11:33.493Z,8.47
2019-04-28T19:14:04.123Z,8.40
2019-04-28T19:16:48.395Z,8.32
2019-04-28T19:19:16.231Z,8.28
2019-04-28T19:21:44.035Z,8.24
2019-04-28T19:24:10.033Z,8.18
2019-04-28T19:26:36.041Z,8.12
2019-04-28T19:29:02.069Z,8.09
2019-04-28T19:31:27.981Z,8.04
2019-04-28T19:33:53.975Z,7.97
2019-04-28T19:36:19.907Z,7.87
2019-04-28T19:38:45.746Z,7.81
2019-04-28T19:41:11.698Z,7.75
2019-04-28T19:43:37.669Z,7.75
2019-04-28T19:46:05.527Z,7.73
2019-04-28T19:48:31.419Z,7.69
2019-04-28T19:50:57.287Z,7.68
2019-04-28T19:53:23.292Z,7.63
2019-04-28T19:55:54.680Z,7.60
2019-04-28T19:58:28.449Z,7.51
2019-04-28T20:00:56.287Z,7.44
2019-04-28T20:03:22.261Z,7.38
2019-04-28T20:05:48.219Z,7.33
2019-04-28T20:08:14.080Z,7.28
2019-04-28T20:10:40.065Z,7.22
2019-04-28T20:13:05.982Z,7.15
2019-04-28T20:15:32.316Z,7.10
2019-04-28T20:17:58.176Z,7.00
2019-04-28T20:20:24.014Z,6.93
2019-04-28T20:22:49.877Z,6.89
2019-04-28T20:25:15.777Z,6.85
2019-04-28T20:27:41.725Z,6.83
2019-04-28T20:30:07.910Z,6.81
2019-04-28T20:32:35.707Z,6.80
2019-04-28T20:35:01.685Z,6.78
2019-04-28T20:37:35.301Z,6.74
2019-04-28T20:40:03.866Z,6.70
2019-04-28T20:42:37.788Z,6.63
2019-04-28T20:45:08.724Z,6.59
2019-04-28T20:47:34.626Z,6.53
2019-04-28T20:50:00.621Z,6.51
2019-04-28T20:52:26.533Z,6.49
2019-04-28T20:54:52.447Z,6.45
2019-04-28T20:57:18.397Z,6.40
2019-04-28T20:59:44.422Z,6.35
2019-04-28T21:02:11.700Z,6.33
2019-04-28T21:04:37.596Z,6.29
2019-04-28T21:07:03.653Z,6.27
2019-04-28T21:09:29.583Z,6.25
2019-04-28T21:11:55.654Z,6.23
2019-04-28T21:14:21.605Z,6.21
2019-04-28T21:16:47.521Z,6.14
2019-04-28T21:19:13.551Z,6.11
2019-04-28T21:21:39.494Z,6.12
2019-04-28T21:24:05.380Z,6.11
2019-04-28T21:26:31.303Z,6.07
2019-04-28T21:28:57.214Z,6.00
2019-04-28T21:31:23.296Z,5.97
2019-04-28T21:33:49.200Z,5.95
2019-04-28T21:36:15.259Z,5.94
2019-04-28T21:38:41.152Z,5.92
2019-04-28T21:41:07.155Z,5.91
2019-04-28T21:43:41.070Z,5.89
2019-04-28T21:46:08.977Z,5.85
2019-04-28T21:48:45.885Z,5.82
2019-04-28T21:51:12.404Z,5.80
2019-04-28T21:53:38.497Z,5.80
2019-04-28T21:56:04.614Z,5.78
2019-04-28T21:58:33.428Z,5.76
2019-04-28T22:00:59.375Z,5.70
2019-04-28T22:03:25.423Z,5.65
2019-04-28T22:05:51.527Z,5.62
2019-04-28T22:08:17.526Z,5.54
2019-04-28T22:10:43.578Z,5.49
2019-04-28T22:13:09.592Z,5.48
2019-04-28T22:15:35.498Z,5.49
2019-04-28T22:18:01.506Z,5.49
2019-04-28T22:20:27.426Z,5.45
2019-04-28T22:22:53.370Z,5.42
2019-04-28T22:25:23.122Z,5.39
2019-04-28T22:27:49.032Z,5.37
2019-04-28T22:30:15.322Z,5.35
2019-04-28T22:32:41.439Z,5.34
2019-04-28T22:35:08.898Z,5.33
2019-04-28T22:37:34.911Z,5.31
2019-04-28T22:40:01.002Z,5.28
2019-04-28T22:42:27.130Z,5.27
2019-04-28T22:44:53.048Z,5.26
2019-04-28T22:47:18.954Z,5.27
2019-04-28T22:49:45.095Z,5.29
2019-04-28T22:52:11.096Z,5.29
2019-04-28T22:54:48.104Z,5.28
2019-04-28T22:57:33.898Z,5.26
2019-04-28T23:00:00.437Z,5.22
2019-04-28T23:02:27.926Z,5.19
2019-04-28T23:05:01.506Z,5.17
2019-04-28T23:07:27.624Z,5.15
2019-04-28T23:09:53.635Z,5.12
2019-04-28T23:12:19.753Z,5.12
2019-04-28T23:14:46.094Z,5.11
2019-04-28T23:17:13.894Z,5.11
2019-04-28T23:19:43.384Z,5.07
2019-04-28T23:22:13.906Z,5.05
2019-04-28T23:24:39.811Z,5.04
2019-04-28T23:27:05.719Z,5.02
2019-04-28T23:29:31.738Z,5.02
2019-04-28T23:31:57.776Z,4.99
2019-04-28T23:34:23.688Z,4.96
2019-04-28T23:36:50.010Z,4.96
2019-04-28T23:39:16.027Z,4.94
2019-04-28T23:41:43.852Z,4.94
2019-04-28T23:44:09.855Z,4.93
2019-04-28T23:46:55.032Z,4.90
2019-04-28T23:49:20.933Z,4.87
2019-04-28T23:51:48.623Z,4.84
2019-04-28T23:54:14.519Z,4.81
2019-04-28T23:56:40.396Z,4.80
2019-04-28T23:59:06.249Z,4.78
